Latest Coastal Weather Observations for Rowley Shoals

IDW60701

Issued at 10:22 am WST Monday 25 July 2016 (issued every 10 minutes, with the page automatically refreshed every 10 minutes)

About coastal observations | Map of coastal stations | Coastal observations for WA | Marine services | Other Formats
Station Details ID: 200713 Name: ROWLEY SHOALS Lat: -17.52 Lon: 118.95 Height: 0.0 m
Data from the previous 72 hours. | See also: Recent months at Rowley Shoals
Date/Time
WST
Temp
°C
Wind Pressure Rain since
9am
mm
Weather Cloud Vis
km
Sea
Height
m
Swell
Dir  Spd
kts
Gust
kts
hPa Trend Height
m
Period
s
Dir
25/10:00am 25.6 ESE 21 25 1016.0 - - - - - - - - -
25/09:30am 25.6 ESE 20 24 1016.2 - - - - - - - - -
25/09:00am 25.6 ESE 22 25 1016.1 - - - - - - - - -
25/08:30am 25.5 ESE 22 26 1015.8 - - - - - - - - -
25/08:00am 25.7 SE 23 26 1015.6 - - - - - - - - -
25/07:30am 25.9 ESE 22 26 1015.2 - - - - - - - - -
25/07:00am 25.8 ESE 23 27 1015.1 - - - - - - - - -
25/06:30am 25.7 SE 24 28 1014.6 - - - - - - - - -
25/06:00am 26.0 SE 22 26 1014.4 - - - - - - - - -
25/05:30am 25.9 SE 23 27 1013.7 - - - - - - - - -
25/05:00am 26.0 ESE 23 29 1013.5 - - - - - - - - -
25/04:30am 26.2 ESE 24 27 1013.2 - - - - - - - - -
25/04:00am 26.2 ESE 24 28 1013.2 - - - - - - - - -
25/03:30am 26.3 SE 23 28 1013.4 - - - - - - - - -
25/03:00am 26.3 SE 24 28 1013.4 - - - - - - - - -
25/02:30am 26.4 SE 24 29 1013.4 - - - - - - - - -
25/02:00am 26.5 SE 24 28 1013.6 - - - - - - - - -
25/01:30am 26.6 SE 24 27 1013.9 - - - - - - - - -
25/01:00am 26.7 SE 24 29 1013.9 - - - - - - - - -
25/12:30am 26.7 SE 22 27 1014.2 - - - - - - - - -
25/12:00am 26.9 SE 23 26 1014.3 - - - - - - - - -
 
Date/Time
WST
Temp
°C
Wind Pressure Rain since
9am
mm
Weather Cloud Vis
km
Sea
Height
m
Swell
Dir  Spd
kts
Gust
kts
hPa Trend Height
m
Period
s
Dir
24/11:30pm 26.9 SE 22 26 1014.4 - - - - - - - - -
24/11:00pm 27.0 SE 21 24 1014.7 - - - - - - - - -
24/10:30pm 26.9 SE 20 23 1014.9 - - - - - - - - -
24/10:00pm 26.8 SE 19 23 1014.9 - - - - - - - - -
24/09:30pm 26.7 SE 19 21 1014.9 - - - - - - - - -
24/09:00pm 26.7 SE 17 20 1014.9 - - - - - - - - -
24/08:30pm 26.4 SE 17 19 1014.8 - - - - - - - - -
24/08:00pm 26.1 SE 18 20 1014.7 - - - - - - - - -
24/07:30pm 26.1 SE 18 21 1014.2 - - - - - - - - -
24/07:00pm 25.8 SE 18 21 1014.0 - - - - - - - - -
24/06:30pm 25.6 SE 19 21 1013.5 - - - - - - - - -
24/06:00pm 25.5 SE 19 22 1013.3 - - - - - - - - -
24/05:30pm 25.3 ESE 19 23 1013.0 - - - - - - - - -
24/05:00pm 25.3 ESE 18 22 1012.7 - - - - - - - - -
24/04:30pm 25.4 ESE 18 21 1012.5 - - - - - - - - -
24/04:00pm 25.2 ESE 19 21 1012.5 - - - - - - - - -
24/03:30pm 25.0 ESE 19 21 1012.4 - - - - - - - - -
24/03:00pm 24.8 ESE 19 23 1012.4 - - - - - - - - -
24/02:30pm 24.9 ESE 19 22 1012.6 - - - - - - - - -
24/02:00pm 24.9 ESE 19 23 1012.6 - - - - - - - - -
24/01:30pm 25.1 ESE 20 23 1013.0 - - - - - - - - -
24/01:00pm 25.2 ESE 21 25 1013.3 - - - - - - - - -
24/12:30pm 25.1 ESE 21 25 1013.7 - - - - - - - - -
24/12:00pm 25.0 ESE 22 26 1013.9 - - - - - - - - -
24/11:30am 25.5 ESE 22 27 1014.5 - - - - - - - - -
24/11:00am 25.4 ESE 22 27 1014.7 - - - - - - - - -
24/10:30am 25.4 ESE 23 27 1015.1 - - - - - - - - -
24/10:00am 25.9 ESE 23 27 1015.2 - - - - - - - - -
24/09:30am 25.8 ESE 23 26 1015.5 - - - - - - - - -
24/09:00am 25.8 ESE 22 27 1015.4 - - - - - - - - -
24/08:30am 25.9 ESE 21 25 1015.2 - - - - - - - - -
24/08:00am 26.0 ESE 20 24 1015.0 - - - - - - - - -
24/07:30am 26.2 ESE 21 26 1014.5 - - - - - - - - -
24/07:00am 26.3 ESE 21 25 1014.5 - - - - - - - - -
24/06:30am 26.5 ESE 22 25 1014.1 - - - - - - - - -
24/06:00am 26.7 ESE 22 26 1014.0 - - - - - - - - -
24/05:30am 27.0 ESE 22 25 1013.3 - - - - - - - - -
24/05:00am 26.9 ESE 21 25 1013.1 - - - - - - - - -
24/04:30am 27.1 ESE 19 23 1012.9 - - - - - - - - -
24/04:00am 27.2 ESE 19 22 1012.8 - - - - - - - - -
24/03:30am 27.4 ESE 21 23 1012.7 - - - - - - - - -
24/03:00am 27.4 ESE 18 21 1012.8 - - - - - - - - -
24/02:30am 27.6 ESE 18 20 1012.7 - - - - - - - - -
24/02:00am 27.8 SE 17 19 1012.8 - - - - - - - - -
24/01:30am 27.5 SE 13 15 1012.9 - - - - - - - - -
24/01:00am 27.4 SE 13 15 1012.9 - - - - - - - - -
24/12:30am 27.4 SE 13 15 1013.1 - - - - - - - - -
24/12:00am 27.2 SE 12 14 1013.2 - - - - - - - - -
 
Date/Time
WST
Temp
°C
Wind Pressure Rain since
9am
mm
Weather Cloud Vis
km
Sea
Height
m
Swell
Dir  Spd
kts
Gust
kts
hPa Trend Height
m
Period
s
Dir
23/11:30pm 27.1 SE 12 14 1013.2 - - - - - - - - -
23/11:00pm 27.2 SE 12 15 1013.2 - - - - - - - - -
23/10:30pm 26.9 SE 12 14 1013.4 - - - - - - - - -
23/10:00pm 26.9 SE 12 14 1013.5 - - - - - - - - -
23/09:30pm 26.4 SE 12 14 1013.4 - - - - - - - - -
23/09:00pm 26.2 SE 13 16 1013.3 - - - - - - - - -
23/08:30pm 26.2 SE 14 16 1013.3 - - - - - - - - -
23/08:00pm 26.1 SE 15 17 1013.0 - - - - - - - - -
23/07:30pm 25.8 ESE 15 17 1012.6 - - - - - - - - -
23/07:00pm 25.8 ESE 16 18 1012.3 - - - - - - - - -
23/06:30pm 25.5 SE 16 19 1012.1 - - - - - - - - -
23/06:00pm 25.5 SE 16 18 1011.8 - - - - - - - - -
23/05:30pm 25.1 SE 17 19 1011.5 - - - - - - - - -
23/05:00pm 25.3 SE 16 19 1011.5 - - - - - - - - -
23/04:30pm 25.3 SE 17 21 1011.4 - - - - - - - - -
23/04:00pm 25.2 SE 18 21 1011.4 - - - - - - - - -
23/03:30pm 25.3 SE 17 21 1011.6 - - - - - - - - -
23/03:00pm 25.4 SE 18 21 1011.7 - - - - - - - - -
23/02:30pm 25.1 ESE 18 21 1012.0 - - - - - - - - -
23/02:00pm 25.1 ESE 18 21 1012.2 - - - - - - - - -
23/01:30pm 25.1 ESE 18 20 1012.8 - - - - - - - - -
23/01:00pm 25.1 ESE 18 21 1013.0 - - - - - - - - -
23/12:30pm 25.2 SE 19 22 1013.6 - - - - - - - - -
23/12:00pm 25.2 SE 18 22 1013.9 - - - - - - - - -
23/11:30am 25.3 SE 18 21 1014.5 - - - - - - - - -
23/11:00am 25.4 SE 18 21 1014.8 - - - - - - - - -
23/10:30am 25.5 SE 19 21 1015.3 - - - - - - - - -
23/10:00am 25.8 SE 18 21 1015.4 - - - - - - - - -
23/09:30am 25.9 SE 17 20 1015.5 - - - - - - - - -
23/09:00am 26.0 ESE 16 19 1015.4 - - - - - - - - -
23/08:30am 26.2 SE 15 18 1015.3 - - - - - - - - -
23/08:00am 26.3 ESE 13 15 1015.0 - - - - - - - - -
23/07:30am 26.3 ESE 14 17 1014.7 - - - - - - - - -
23/07:00am 26.4 SE 14 16 1014.6 - - - - - - - - -
23/06:30am 26.4 SE 12 15 1014.2 - - - - - - - - -
23/06:00am 26.4 SE 10 13 1014.0 - - - - - - - - -
23/05:30am 25.8 SE 13 15 1013.7 - - - - - - - - -
23/05:00am 26.2 SE 13 15 1013.5 - - - - - - - - -
23/04:30am 26.9 SSE 14 17 1013.2 - - - - - - - - -
23/04:27am 26.7 SSE 12 16 1013.2 - - - - - - - - -
23/04:00am 26.8 SE 5 5 1013.1 - - - - - - - - -
23/03:30am 26.9 SE 4 5 1013.1 - - - - - - - - -
23/03:00am 26.9 ESE 4 5 1013.1 - - - - - - - - -
23/02:30am 26.9 SE 3 5 1013.3 - - - - - - - - -
23/02:00am 26.9 CALM 0 0 1013.4 - - - - - - - - -
23/01:30am 27.0 SE 6 7 1013.4 - - - - - - - - -
23/01:00am 26.9 SSE 7 8 1013.5 - - - - - - - - -
23/12:30am 27.1 SSE 7 9 1013.7 - - - - - - - - -
23/12:00am 26.9 SSE 8 9 1013.6 - - - - - - - - -
 
Date/Time
WST
Temp
°C
Wind Pressure Rain since
9am
mm
Weather Cloud Vis
km
Sea
Height
m
Swell
Dir  Spd
kts
Gust
kts
hPa Trend Height
m
Period
s
Dir
22/11:30pm 26.9 SSE 8 10 1013.6 - - - - - - - - -
22/11:00pm 26.8 SSE 8 10 1013.7 - - - - - - - - -
22/10:30pm 26.9 SSE 9 10 1013.8 - - - - - - - - -
22/10:00pm 26.8 SE 11 12 1014.0 - - - - - - - - -
22/09:30pm 26.7 SE 11 13 1014.0 - - - - - - - - -
22/09:00pm 26.5 SE 11 12 1014.1 - - - - - - - - -
22/08:30pm 26.5 SE 10 12 1014.0 - - - - - - - - -
22/08:00pm 26.6 SE 11 13 1013.9 - - - - - - - - -
22/07:30pm 26.4 SE 10 12 1013.6 - - - - - - - - -
22/07:00pm 26.5 SE 11 12 1013.4 - - - - - - - - -
22/06:30pm 26.4 SE 9 11 1013.1 - - - - - - - - -
22/06:00pm 26.3 SE 10 11 1012.9 - - - - - - - - -
22/05:30pm 26.3 SE 10 12 1012.7 - - - - - - - - -
22/05:00pm 26.3 SE 10 12 1012.6 - - - - - - - - -
22/04:30pm 26.3 SE 11 13 1012.4 - - - - - - - - -
22/04:00pm 26.1 SE 11 13 1012.2 - - - - - - - - -
22/03:30pm 26.1 SE 12 14 1012.2 - - - - - - - - -
22/03:00pm 26.2 SE 12 14 1012.3 - - - - - - - - -
22/02:30pm 26.2 SE 12 14 1012.5 - - - - - - - - -
22/02:00pm 26.3 SE 13 15 1012.6 - - - - - - - - -
22/01:30pm 26.0 SE 13 16 1012.7 - - - - - - - - -
22/01:00pm 26.2 SE 14 17 1012.8 - - - - - - - - -
22/12:30pm 26.4 SE 12 15 1013.3 - - - - - - - - -
22/12:00pm 26.5 SE 11 14 1013.6 - - - - - - - - -
22/11:30am 25.9 SE 11 14 1014.1 - - - - - - - - -
22/11:00am 25.6 SE 12 14 1014.4 - - - - - - - - -
22/10:30am 25.9 SE 11 13 1014.8 - - - - - - - - -

Other Formats:

Comma delimited format used in spreadsheet applications
http://www.bom.gov.au/fwo/IDW60701/IDW60701.94207.axf

JavaScript Object Notation format (JSON) in row-major order
http://www.bom.gov.au/fwo/IDW60701/IDW60701.94207.json